Time;durP1;ratioP1;P1;durP2;ratioP2;P2;SDS_P1;SDS_P2;PMS_P1;PMS_P2;Temp;Humidity;BMP_temperature;BMP_pressure;BME280_temperature;BME280_humidity;BME280_pressure;Samples;Min_cycle;Max_cycle;Signal;HPM_P1;HPM_P2
2022/05/17 00:01:14;;;;;;;9.95;7.20;;;;;;;15.34;100.00;98494.56;2576432;28;20057;-83
2022/05/17 00:02:30;;;;;;;8.07;7.03;;;;;;;15.34;100.00;98494.56;2576425;28;20057;-83
2022/05/17 00:03:46;;;;;;;11.90;6.82;;;;;;;15.39;100.00;98492.59;2576327;28;20160;-83
2022/05/17 00:05:04;;;;;;;9.40;6.53;;;;;;;15.42;100.00;98496.00;2576379;28;20061;-83
2022/05/17 00:06:20;;;;;;;8.65;6.00;;;;;;;15.38;100.00;98485.59;2576443;28;20133;-83
2022/05/17 00:07:35;;;;;;;10.23;6.40;;;;;;;15.29;100.00;98483.38;2576279;28;20082;-82
2022/05/17 00:08:51;;;;;;;8.65;6.32;;;;;;;15.18;100.00;98486.53;2576472;28;20665;-84
2022/05/17 00:10:07;;;;;;;7.10;6.20;;;;;;;15.13;100.00;98485.03;2565368;28;20070;-83
2022/05/17 00:11:24;;;;;;;7.47;5.95;;;;;;;15.04;100.00;98481.88;2569579;28;20054;-83
2022/05/17 00:12:39;;;;;;;10.63;6.90;;;;;;;14.91;100.00;98481.59;2576311;28;20635;-85
2022/05/17 00:13:56;;;;;;;11.13;7.35;;;;;;;14.90;100.00;98479.00;2576500;28;20054;-85
2022/05/17 00:15:11;;;;;;;9.25;7.47;;;;;;;14.88;100.00;98480.88;2576296;28;20050;-85
2022/05/17 00:16:27;;;;;;;15.05;8.13;;;;;;;14.80;100.00;98484.69;2575509;28;20663;-89
2022/05/17 00:17:43;;;;;;;16.55;7.95;;;;;;;14.77;100.00;98473.44;2576187;28;20065;-87
2022/05/17 00:18:58;;;;;;;9.05;6.93;;;;;;;14.81;100.00;98477.66;2576117;28;20116;-84
2022/05/17 00:20:15;;;;;;;9.18;6.97;;;;;;;14.82;100.00;98474.94;2576287;28;20116;-82
2022/05/17 00:21:30;;;;;;;12.32;7.70;;;;;;;14.82;100.00;98472.31;2575952;28;20054;-81
2022/05/17 00:22:46;;;;;;;11.32;7.25;;;;;;;14.83;100.00;98471.41;2575956;28;20695;-84
2022/05/17 00:24:02;;;;;;;12.90;8.07;;;;;;;14.85;100.00;98473.09;2576039;28;20107;-84
2022/05/17 00:25:20;;;;;;;11.57;7.82;;;;;;;14.87;100.00;98465.97;2576293;28;20489;-84
2022/05/17 00:26:35;;;;;;;10.10;7.22;;;;;;;14.86;100.00;98467.75;2575961;28;20056;-87
2022/05/17 00:27:52;;;;;;;9.98;7.85;;;;;;;14.82;100.00;98466.19;2576035;28;20543;-85
2022/05/17 00:29:08;;;;;;;10.98;7.40;;;;;;;14.82;100.00;98474.94;2576079;28;20073;-84
2022/05/17 00:30:23;;;;;;;10.88;7.43;;;;;;;14.85;100.00;98470.47;2575952;28;20076;-84
2022/05/17 00:31:39;;;;;;;12.88;8.15;;;;;;;14.81;100.00;98469.75;2576165;28;20058;-84
2022/05/17 00:32:55;;;;;;;12.63;7.75;;;;;;;14.76;100.00;98469.09;2575691;28;20046;-83
2022/05/17 00:34:10;;;;;;;9.82;7.68;;;;;;;14.74;100.00;98473.59;2576010;28;20065;-85
2022/05/17 00:35:26;;;;;;;10.80;7.10;;;;;;;14.74;100.00;98466.53;2575677;28;20081;-84
2022/05/17 00:36:41;;;;;;;11.63;7.05;;;;;;;14.73;100.00;98467.44;2565372;28;20497;-84
2022/05/17 00:37:57;;;;;;;10.32;6.88;;;;;;;14.75;100.00;98470.03;2569310;28;20531;-84
2022/05/17 00:39:13;;;;;;;11.48;7.30;;;;;;;14.73;100.00;98467.44;2576121;28;20443;-82
2022/05/17 00:40:29;;;;;;;7.97;6.68;;;;;;;14.74;100.00;98481.50;2576037;28;20046;-84
2022/05/17 00:41:45;;;;;;;10.65;7.30;;;;;;;14.76;100.00;98472.56;2575799;28;20054;-84
2022/05/17 00:43:00;;;;;;;9.52;6.60;;;;;;;14.85;100.00;98473.09;2575594;28;20438;-86
2022/05/17 00:45:51;;;;;;;10.55;6.65;;;;;;;14.72;100.00;98476.28;2576193;28;20145;-85
2022/05/17 00:47:20;;;;;;;8.15;6.55;;;;;;;14.71;100.00;98471.91;2575937;28;20061;-87
2022/05/17 00:48:36;;;;;;;9.15;5.97;;;;;;;14.74;100.00;98465.69;2575966;28;20536;-84
2022/05/17 00:50:07;;;;;;;7.13;5.88;;;;;;;14.73;100.00;98459.53;2576230;28;20061;-83
2022/05/17 00:51:28;;;;;;;9.88;6.10;;;;;;;14.72;100.00;98467.50;2575879;28;20112;-85
2022/05/17 00:52:53;;;;;;;9.45;6.30;;;;;;;14.68;100.00;98464.97;2576117;28;20050;-85
2022/05/17 00:54:14;;;;;;;7.80;6.30;;;;;;;14.62;100.00;98465.28;2575094;28;20078;-83
2022/05/17 00:55:45;;;;;;;7.25;5.72;;;;;;;14.59;100.00;98467.19;2575531;28;20492;-84
2022/05/17 00:57:09;;;;;;;8.00;6.13;;;;;;;14.57;100.00;98469.88;2575945;28;20046;-88
2022/05/17 00:58:34;;;;;;;10.57;6.80;;;;;;;14.48;100.00;98465.84;2575855;28;20526;-84
2022/05/17 00:59:50;;;;;;;10.52;6.55;;;;;;;14.50;100.00;98465.81;2575765;28;20058;-84
2022/05/17 01:01:12;;;;;;;11.93;7.10;;;;;;;14.48;100.00;98476.41;2575536;28;20054;-84
2022/05/17 01:02:29;;;;;;;12.82;7.00;;;;;;;14.51;100.00;98472.78;2576078;28;20401;-84
2022/05/17 01:03:50;;;;;;;11.43;6.82;;;;;;;14.53;100.00;98470.94;2575823;28;20101;-85
2022/05/17 01:05:06;;;;;;;10.25;7.13;;;;;;;14.58;100.00;98470.75;2575679;28;20105;-84
2022/05/17 01:06:27;;;;;;;13.05;7.90;;;;;;;14.63;100.00;98469.63;2575386;28;20114;-85
2022/05/17 01:07:47;;;;;;;10.00;7.80;;;;;;;14.68;100.00;98470.25;2575483;28;20054;-84
2022/05/17 01:09:03;;;;;;;9.85;6.97;;;;;;;14.76;100.00;98464.66;2575676;28;20046;-84
2022/05/17 01:10:20;;;;;;;9.27;6.60;;;;;;;14.89;100.00;98474.66;2575708;28;20050;-83
2022/05/17 01:11:36;;;;;;;10.35;6.90;;;;;;;14.95;100.00;98469.97;2575729;28;20064;-85
2022/05/17 01:15:00;;;;;;;9.02;6.53;;;;;;;15.00;100.00;98471.53;2543933;29;20083;-84
2022/05/17 01:16:17;;;;;;;7.82;6.05;;;;;;;15.08;100.00;98475.53;2575726;28;20042;-84
2022/05/17 01:17:35;;;;;;;8.50;6.95;;;;;;;15.07;100.00;98465.91;2575706;28;20112;-85
2022/05/17 01:18:52;;;;;;;9.30;5.60;;;;;;;15.06;100.00;98471.28;2575327;28;20082;-88
2022/05/17 01:20:12;;;;;;;8.50;5.43;;;;;;;15.07;100.00;98465.06;2575577;28;20149;-85
2022/05/17 01:21:28;;;;;;;7.70;5.32;;;;;;;15.02;100.00;98472.34;2575410;28;20689;-87
2022/05/17 01:22:44;;;;;;;7.57;5.88;;;;;;;14.99;100.00;98473.31;2575371;28;20058;-86
2022/05/17 01:23:59;;;;;;;8.77;6.60;;;;;;;14.98;100.00;98468.97;2575590;28;20530;-84
2022/05/17 01:25:15;;;;;;;10.45;6.07;;;;;;;14.97;100.00;98470.75;2575717;28;20053;-84
2022/05/17 01:26:35;;;;;;;8.45;5.90;;;;;;;14.97;100.00;98467.28;2575449;28;20050;-84
2022/05/17 01:28:04;;;;;;;7.60;5.93;;;;;;;14.96;100.00;98465.56;2575150;28;20097;-84
2022/05/17 01:29:20;;;;;;;9.98;6.05;;;;;;;14.95;100.00;98464.69;2575454;28;20488;-84
2022/05/17 01:30:36;;;;;;;6.60;5.72;;;;;;;14.97;100.00;98462.84;2575474;28;20038;-85
2022/05/17 01:31:52;;;;;;;8.52;6.15;;;;;;;14.98;100.00;98468.97;2575382;28;20080;-85
2022/05/17 01:33:15;;;;;;;9.07;6.45;;;;;;;15.00;100.00;98461.84;2575529;28;20504;-84
2022/05/17 01:34:30;;;;;;;8.32;6.25;;;;;;;15.02;100.00;98451.25;2575262;28;20065;-85
2022/05/17 01:35:47;;;;;;;12.38;6.55;;;;;;;15.04;100.00;98463.41;2575837;28;20061;-85
2022/05/17 01:37:04;;;;;;;7.78;6.18;;;;;;;15.04;100.00;98458.16;2575462;28;20058;-85
2022/05/17 01:38:20;;;;;;;8.18;6.50;;;;;;;15.00;100.00;98469.75;2575338;28;20058;-85
2022/05/17 01:39:36;;;;;;;10.25;7.15;;;;;;;14.99;100.00;98464.56;2575598;28;20133;-84
2022/05/17 01:40:51;;;;;;;7.72;6.25;;;;;;;15.02;100.00;98467.91;2575713;28;20050;-85
2022/05/17 01:42:08;;;;;;;10.35;6.70;;;;;;;15.04;100.00;98459.94;2575389;28;20104;-85
2022/05/17 01:43:24;;;;;;;10.50;7.22;;;;;;;15.10;100.00;98457.88;2575253;28;20054;-88
2022/05/17 01:44:43;;;;;;;9.82;7.78;;;;;;;15.07;100.00;98465.06;2575718;28;20050;-86
2022/05/17 01:46:08;;;;;;;10.00;7.57;;;;;;;15.06;100.00;98472.09;2575453;28;20509;-84
2022/05/17 01:47:24;;;;;;;10.98;7.57;;;;;;;15.07;100.00;98465.91;2575401;28;20588;-85
2022/05/17 01:48:40;;;;;;;9.55;6.43;;;;;;;15.07;100.00;98460.63;2575858;28;20077;-84
2022/05/17 01:49:55;;;;;;;10.30;6.88;;;;;;;15.05;100.00;98456.38;2575466;28;20072;-84
2022/05/17 01:51:11;;;;;;;7.93;6.32;;;;;;;15.01;100.00;98457.41;2575229;28;20051;-86
2022/05/17 01:52:27;;;;;;;10.20;6.78;;;;;;;14.94;100.00;98455.09;2574966;28;20054;-85
2022/05/17 01:53:43;;;;;;;7.63;6.70;;;;;;;14.94;100.00;98457.72;2575158;28;20875;-85
2022/05/17 01:54:59;;;;;;;7.97;6.00;;;;;;;14.93;100.00;98463.03;2575591;28;20050;-85
2022/05/17 01:56:15;;;;;;;8.85;6.68;;;;;;;14.91;100.00;98460.50;2575089;28;20050;-86
2022/05/17 01:57:30;;;;;;;10.27;7.07;;;;;;;14.92;100.00;98458.69;2564696;28;20071;-85
2022/05/17 01:58:46;;;;;;;13.82;7.05;;;;;;;14.89;100.00;98461.47;2568964;28;20671;-84
2022/05/17 02:00:05;;;;;;;8.50;6.38;;;;;;;14.85;100.00;98458.13;2575458;28;20602;-87
2022/05/17 02:01:20;;;;;;;11.05;6.18;;;;;;;14.84;100.00;98453.78;2575131;28;20054;-86
2022/05/17 02:02:36;;;;;;;8.57;6.72;;;;;;;14.83;100.00;98452.94;2575730;28;20054;-86
2022/05/17 02:03:52;;;;;;;12.77;6.60;;;;;;;14.85;100.00;98452.84;2575477;28;20050;-85
2022/05/17 02:05:08;;;;;;;10.02;7.47;;;;;;;14.86;100.00;98459.00;2575318;28;20049;-84
2022/05/17 02:06:25;;;;;;;8.75;6.65;;;;;;;14.90;100.00;98452.66;2575275;28;20100;-85
2022/05/17 02:07:40;;;;;;;9.75;6.93;;;;;;;14.92;100.00;98459.56;2575257;28;20054;-85
2022/05/17 02:08:56;;;;;;;8.10;6.72;;;;;;;14.94;100.00;98456.84;2575412;28;20053;-85
2022/05/17 02:10:12;;;;;;;9.02;6.90;;;;;;;14.95;100.00;98461.22;2564283;28;20046;-85
2022/05/17 02:11:28;;;;;;;8.77;7.05;;;;;;;14.93;100.00;98463.91;2568989;28;20664;-85
2022/05/17 02:12:43;;;;;;;8.77;6.68;;;;;;;14.94;100.00;98460.34;2575296;28;20054;-84
2022/05/17 02:13:59;;;;;;;9.98;6.57;;;;;;;14.94;100.00;98465.63;2575511;28;20716;-85
2022/05/17 02:15:15;;;;;;;11.82;7.00;;;;;;;14.96;100.00;98465.56;2575320;28;20121;-85
2022/05/17 02:16:35;;;;;;;8.18;6.80;;;;;;;14.99;100.00;98470.69;2575094;28;20057;-85
2022/05/17 02:17:50;;;;;;;8.57;6.55;;;;;;;15.03;100.00;98466.13;2575569;28;20054;-85
2022/05/17 02:19:06;;;;;;;8.40;5.82;;;;;;;15.05;100.00;98465.13;2575420;28;20053;-85
2022/05/17 02:20:22;;;;;;;9.35;6.97;;;;;;;15.10;100.00;98465.78;2575357;28;20433;-85
2022/05/17 02:21:39;;;;;;;8.43;6.65;;;;;;;15.16;100.00;98462.00;2575233;28;20078;-84
2022/05/17 02:22:54;;;;;;;9.65;6.45;;;;;;;15.17;100.00;98465.50;2575436;28;20477;-85
2022/05/17 02:24:10;;;;;;;8.75;6.28;;;;;;;15.15;100.00;98462.91;2575466;28;20063;-85
2022/05/17 02:25:26;;;;;;;10.20;6.28;;;;;;;15.13;100.00;98462.13;2575440;28;20046;-84
2022/05/17 02:26:42;;;;;;;9.35;6.63;;;;;;;15.10;100.00;98455.25;2575618;28;20424;-86
2022/05/17 02:27:57;;;;;;;8.48;6.18;;;;;;;15.03;100.00;98455.59;2575187;28;20054;-85
2022/05/17 02:29:13;;;;;;;9.15;6.95;;;;;;;15.00;100.00;98453.94;2575190;28;20058;-88
2022/05/17 02:30:29;;;;;;;10.55;7.15;;;;;;;14.98;100.00;98461.06;2575435;28;20058;-85
2022/05/17 02:31:44;;;;;;;9.48;7.05;;;;;;;14.99;100.00;98456.63;2575232;28;20054;-85
2022/05/17 02:33:00;;;;;;;10.13;7.07;;;;;;;15.01;100.00;98452.16;2575460;28;20065;-84
2022/05/17 02:34:17;;;;;;;9.20;7.38;;;;;;;15.02;100.00;98451.25;2575293;28;20054;-84
2022/05/17 02:35:32;;;;;;;9.07;6.88;;;;;;;15.04;100.00;98447.59;2575516;28;20112;-84
2022/05/17 02:36:48;;;;;;;11.10;7.63;;;;;;;15.07;100.00;98449.25;2575226;28;20093;-84
2022/05/17 02:38:04;;;;;;;10.77;7.47;;;;;;;15.09;100.00;98448.25;2574735;28;20064;-84
2022/05/17 02:39:20;;;;;;;10.07;6.70;;;;;;;15.13;100.00;98438.41;2575293;28;20054;-83
2022/05/17 02:40:36;;;;;;;8.23;6.50;;;;;;;15.12;100.00;98439.31;2577289;28;20050;-84
2022/05/17 02:41:52;;;;;;;8.27;6.22;;;;;;;15.10;100.00;98446.47;2577106;28;20073;-86
2022/05/17 02:43:12;;;;;;;8.25;6.15;;;;;;;15.08;100.00;98448.31;2577347;28;20049;-85
2022/05/17 02:44:28;;;;;;;9.27;6.88;;;;;;;15.07;100.00;98447.44;2577541;28;20505;-83
2022/05/17 02:45:44;;;;;;;9.35;7.13;;;;;;;15.07;100.00;98450.09;2577386;28;20598;-84
2022/05/17 02:46:59;;;;;;;12.35;6.90;;;;;;;15.03;100.00;98452.97;2577127;28;20058;-84
2022/05/17 02:48:16;;;;;;;9.07;6.53;;;;;;;15.09;100.00;98456.16;2576919;28;20073;-84
2022/05/17 02:49:32;;;;;;;8.40;6.45;;;;;;;15.09;100.00;98455.31;2577100;28;20065;-83
2022/05/17 02:50:48;;;;;;;8.48;6.13;;;;;;;15.13;100.00;98459.50;2576927;28;20464;-87
2022/05/17 02:52:04;;;;;;;8.77;5.80;;;;;;;15.12;100.00;98455.16;2577013;28;20523;-85
2022/05/17 02:53:19;;;;;;;10.93;6.72;;;;;;;15.11;100.00;98453.44;2577119;28;20101;-84
2022/05/17 02:54:35;;;;;;;9.48;6.88;;;;;;;15.10;100.00;98459.66;2577008;28;20124;-84
2022/05/17 02:55:51;;;;;;;9.82;6.78;;;;;;;15.11;100.00;98456.06;2577365;28;20046;-84
2022/05/17 02:57:07;;;;;;;10.48;6.53;;;;;;;15.09;100.00;98461.44;2577033;28;20047;-84
2022/05/17 02:58:23;;;;;;;9.18;6.38;;;;;;;15.11;100.00;98462.22;2577138;28;20054;-83
2022/05/17 02:59:38;;;;;;;10.50;6.50;;;;;;;15.14;100.00;98461.19;2577083;28;20054;-84
2022/05/17 03:00:54;;;;;;;9.15;6.30;;;;;;;15.22;100.00;98468.75;2576414;28;20051;-84
2022/05/17 03:02:10;;;;;;;8.65;6.30;;;;;;;15.24;100.00;98459.03;2576981;28;20050;-83
2022/05/17 03:03:26;;;;;;;10.15;6.30;;;;;;;15.27;100.00;98461.50;2576702;28;20113;-86
2022/05/17 03:04:42;;;;;;;8.85;5.95;;;;;;;15.29;100.00;98458.78;2577205;28;20042;-84
2022/05/17 03:05:58;;;;;;;7.63;5.85;;;;;;;15.28;100.00;98460.56;2577154;28;20050;-83
2022/05/17 03:07:13;;;;;;;6.50;5.63;;;;;;;15.27;100.00;98461.50;2576904;28;20078;-84
2022/05/17 03:08:28;;;;;;;8.75;5.55;;;;;;;15.28;100.00;98463.22;2576607;28;20050;-84
2022/05/17 03:09:44;;;;;;;6.20;5.30;;;;;;;15.29;100.00;98472.84;2577010;28;20085;-83
2022/05/17 03:11:01;;;;;;;9.60;5.50;;;;;;;15.28;100.00;98454.44;2576754;28;20254;-84
2022/05/17 03:12:16;;;;;;;7.93;5.82;;;;;;;15.27;100.00;98464.13;2568992;28;20050;-83
2022/05/17 03:13:33;;;;;;;8.75;5.85;;;;;;;15.29;100.00;98464.06;2573511;28;20108;-83
2022/05/17 03:14:49;;;;;;;9.77;6.65;;;;;;;15.31;100.00;98468.34;2576571;28;20096;-84
2022/05/17 03:16:05;;;;;;;7.55;5.93;;;;;;;15.30;100.00;98465.78;2576791;28;20092;-83
2022/05/17 03:17:21;;;;;;;9.90;6.47;;;;;;;15.28;100.00;98471.13;2576824;28;20068;-85
2022/05/17 03:18:39;;;;;;;8.93;6.60;;;;;;;15.28;100.00;98465.84;2576881;28;20716;-84
2022/05/17 03:19:55;;;;;;;8.90;6.35;;;;;;;15.28;100.00;98467.63;2576937;28;20066;-83
2022/05/17 03:21:10;;;;;;;13.38;7.20;;;;;;;15.25;100.00;98463.38;2576695;28;20050;-83
2022/05/17 03:22:26;;;;;;;12.40;6.78;;;;;;;15.28;100.00;98468.50;2577154;28;20046;-84
2022/05/17 03:23:41;;;;;;;10.80;7.38;;;;;;;15.27;100.00;98469.41;2576713;28;20051;-82
2022/05/17 03:24:57;;;;;;;9.40;6.82;;;;;;;15.23;100.00;98475.78;2576856;28;20149;-83
2022/05/17 03:26:13;;;;;;;10.18;7.28;;;;;;;15.23;100.00;98466.06;2576907;28;20141;-84
2022/05/17 03:27:28;;;;;;;9.60;7.20;;;;;;;15.19;100.00;98469.78;2576552;28;20066;-83
2022/05/17 03:28:44;;;;;;;12.73;7.43;;;;;;;15.24;100.00;98472.19;2575165;28;20584;-84
2022/05/17 03:30:00;;;;;;;8.27;6.78;;;;;;;15.27;100.00;98472.06;2576804;28;20101;-81
2022/05/17 03:31:15;;;;;;;8.93;7.07;;;;;;;15.21;100.00;98475.81;2576707;28;20424;-81
2022/05/17 03:32:31;;;;;;;10.50;7.07;;;;;;;15.23;100.00;98467.84;2576413;28;20145;-83
2022/05/17 03:33:47;;;;;;;11.35;6.85;;;;;;;15.27;100.00;98473.81;2576871;28;20054;-83
2022/05/17 03:35:03;;;;;;;7.50;6.70;;;;;;;15.33;100.00;98482.31;2576779;28;20062;-85
2022/05/17 03:36:19;;;;;;;12.18;7.40;;;;;;;15.30;100.00;98479.81;2576506;28;20054;-89
2022/05/17 03:37:35;;;;;;;10.20;6.93;;;;;;;15.36;100.00;98476.88;2576837;28;20425;-84
2022/05/17 03:38:50;;;;;;;9.77;6.70;;;;;;;15.34;100.00;98478.72;2576587;28;20058;-82
2022/05/17 03:40:11;;;;;;;10.48;6.60;;;;;;;15.34;100.00;98483.16;2576118;28;20054;-82
2022/05/17 03:41:26;;;;;;;11.23;7.13;;;;;;;15.33;100.00;98479.66;2575550;28;20379;-84
2022/05/17 03:42:42;;;;;;;8.93;6.55;;;;;;;15.39;100.00;98486.44;2575981;28;20058;-83
2022/05/17 03:43:57;;;;;;;7.82;6.60;;;;;;;15.38;100.00;98490.88;2576476;28;20899;-83
2022/05/17 03:45:13;;;;;;;9.15;6.97;;;;;;;15.40;100.00;98490.78;2576616;28;20416;-82
2022/05/17 03:46:29;;;;;;;8.23;6.35;;;;;;;15.36;100.00;98492.69;2576176;28;20042;-82
2022/05/17 03:47:45;;;;;;;10.15;6.20;;;;;;;15.30;100.00;98493.00;2576763;28;20046;-82
2022/05/17 03:49:00;;;;;;;9.38;6.30;;;;;;;15.37;100.00;98496.22;2576355;28;20136;-84
2022/05/17 03:50:17;;;;;;;10.30;6.38;;;;;;;15.34;100.00;98491.91;2565657;28;20086;-82
2022/05/17 03:51:32;;;;;;;9.88;6.40;;;;;;;15.35;100.00;98495.44;2569836;28;20047;-82
2022/05/17 03:52:48;;;;;;;9.10;6.47;;;;;;;15.36;100.00;98495.34;2576634;28;20069;-83
2022/05/17 03:54:04;;;;;;;10.25;6.60;;;;;;;15.33;100.00;98492.84;2576762;28;20062;-83
2022/05/17 03:55:20;;;;;;;9.63;6.40;;;;;;;15.34;100.00;98491.91;2576767;28;20053;-83
2022/05/17 03:56:35;;;;;;;9.98;6.45;;;;;;;15.36;100.00;98494.50;2576571;28;20086;-85
2022/05/17 03:57:51;;;;;;;9.48;6.25;;;;;;;15.33;100.00;98489.38;2576350;28;20054;-83
2022/05/17 03:59:06;;;;;;;8.52;6.85;;;;;;;15.37;100.00;98486.53;2576443;28;20053;-84
2022/05/17 04:00:22;;;;;;;7.40;6.25;;;;;;;15.37;100.00;98493.56;2576333;28;20160;-83
2022/05/17 04:01:38;;;;;;;7.60;6.53;;;;;;;15.37;100.00;98490.94;2575857;28;20061;-87
2022/05/17 04:02:53;;;;;;;8.63;6.63;;;;;;;15.34;100.00;98489.28;2576249;28;20142;-83
2022/05/17 04:04:09;;;;;;;8.88;6.35;;;;;;;15.32;100.00;98487.66;2576466;28;20057;-82
2022/05/17 04:05:25;;;;;;;8.70;6.70;;;;;;;15.33;100.00;98487.56;2575703;28;20121;-83
2022/05/17 04:06:40;;;;;;;8.93;6.70;;;;;;;15.31;100.00;98489.44;2576383;28;20091;-83
2022/05/17 04:07:56;;;;;;;7.57;6.55;;;;;;;15.34;100.00;98488.44;2576009;28;20140;-84
2022/05/17 04:09:12;;;;;;;9.43;6.68;;;;;;;15.34;100.00;98493.72;2576607;28;20500;-84
2022/05/17 04:10:28;;;;;;;7.22;5.97;;;;;;;15.34;100.00;98488.44;2575837;28;20054;-85
2022/05/17 04:11:43;;;;;;;7.50;6.47;;;;;;;15.35;100.00;98493.63;2576380;28;20105;-82
2022/05/17 04:12:59;;;;;;;9.73;7.05;;;;;;;15.37;100.00;98494.44;2576231;28;20057;-83
2022/05/17 04:14:14;;;;;;;9.65;7.10;;;;;;;15.37;100.00;98494.44;2576506;28;20050;-83
2022/05/17 04:15:30;;;;;;;9.35;6.78;;;;;;;15.38;100.00;98498.78;2576487;28;20125;-83
2022/05/17 04:16:45;;;;;;;8.45;6.30;;;;;;;15.36;100.00;98500.63;2576291;28;20046;-83
2022/05/17 04:18:01;;;;;;;11.07;7.07;;;;;;;15.35;100.00;98495.44;2576106;28;20735;-83
2022/05/17 04:19:17;;;;;;;8.25;6.53;;;;;;;15.37;100.00;98497.09;2576212;28;20062;-83
2022/05/17 04:20:33;;;;;;;8.88;6.32;;;;;;;15.44;100.00;98502.06;2576157;28;20527;-85
2022/05/17 04:21:49;;;;;;;11.18;6.75;;;;;;;15.51;100.00;98500.84;2576413;28;20051;-83
2022/05/17 04:23:04;;;;;;;7.57;6.35;;;;;;;15.46;100.00;98503.69;2575962;28;20053;-83
2022/05/17 04:24:20;;;;;;;9.73;6.40;;;;;;;15.46;100.00;98513.38;2576448;28;20051;-83
2022/05/17 04:25:36;;;;;;;7.90;6.45;;;;;;;15.52;100.00;98505.19;2576299;28;20679;-83
2022/05/17 04:26:51;;;;;;;10.15;6.50;;;;;;;15.51;100.00;98511.41;2576053;28;20050;-82
2022/05/17 04:28:07;;;;;;;8.05;6.13;;;;;;;15.54;100.00;98508.63;2575963;28;20058;-83
2022/05/17 04:29:23;;;;;;;7.30;6.45;;;;;;;15.54;100.00;98511.25;2576212;28;20141;-83
2022/05/17 04:30:39;;;;;;;10.40;6.13;;;;;;;15.57;100.00;98510.22;2557756;28;20369;-86
2022/05/17 04:31:54;;;;;;;10.52;6.82;;;;;;;15.70;100.00;98506.09;2575667;28;20057;-83
2022/05/17 04:33:10;;;;;;;9.52;6.97;;;;;;;15.71;100.00;98513.06;2575982;28;20595;-84
2022/05/17 04:34:26;;;;;;;8.15;6.68;;;;;;;15.66;100.00;98509.81;2576111;28;20108;-83
2022/05/17 04:35:42;;;;;;;8.25;6.50;;;;;;;15.65;100.00;98513.38;2575767;28;20085;-83
2022/05/17 04:36:58;;;;;;;13.77;6.60;;;;;;;15.61;100.00;98514.47;2575498;28;20057;-84
2022/05/17 04:38:14;;;;;;;8.55;6.40;;;;;;;15.62;100.00;98511.72;2575834;28;20896;-84
2022/05/17 04:39:30;;;;;;;7.07;6.05;;;;;;;15.65;100.00;98511.59;2575305;28;20046;-87
2022/05/17 04:40:46;;;;;;;9.27;6.03;;;;;;;15.68;100.00;98513.22;2575369;28;20104;-84
2022/05/17 04:42:02;;;;;;;10.02;6.32;;;;;;;15.70;100.00;98507.88;2575414;28;20050;-85
2022/05/17 04:43:19;;;;;;;7.72;6.22;;;;;;;15.75;100.00;98506.72;2575602;28;20088;-84
2022/05/17 04:44:34;;;;;;;10.73;6.45;;;;;;;15.80;100.00;98511.81;2575827;28;20050;-84
2022/05/17 04:45:51;;;;;;;12.32;6.93;;;;;;;15.75;100.00;98513.78;2575567;28;20058;-84
2022/05/17 04:47:08;;;;;;;7.70;6.10;;;;;;;15.76;100.00;98511.09;2575370;28;20054;-83
2022/05/17 04:48:26;;;;;;;9.65;6.70;;;;;;;15.89;100.00;98521.06;2575497;28;20153;-83
2022/05/17 04:49:41;;;;;;;8.25;6.13;;;;;;;15.92;100.00;98520.94;2564571;28;20093;-83
2022/05/17 04:50:57;;;;;;;10.60;6.60;;;;;;;16.01;100.00;98519.63;2569352;28;20051;-83
2022/05/17 04:52:13;;;;;;;6.95;6.22;;;;;;;15.96;100.00;98522.47;2576020;28;20536;-84
2022/05/17 04:53:28;;;;;;;11.27;6.63;;;;;;;15.89;100.00;98521.91;2576051;28;20038;-84
2022/05/17 04:54:44;;;;;;;11.13;6.90;;;;;;;15.82;100.00;98523.13;2575993;28;20061;-82
2022/05/17 04:56:00;;;;;;;8.65;7.07;;;;;;;15.81;100.00;98529.34;2575772;28;20081;-84
2022/05/17 04:57:15;;;;;;;9.10;6.05;;;;;;;15.78;100.00;98524.19;2575872;28;20127;-84
2022/05/17 04:58:32;;;;;;;9.07;6.57;;;;;;;15.74;100.00;98531.44;2576121;28;20101;-83
2022/05/17 04:59:47;;;;;;;9.43;7.00;;;;;;;15.76;100.00;98529.56;2575363;28;20054;-83
2022/05/17 05:01:04;;;;;;;8.10;6.30;;;;;;;15.74;100.00;98527.91;2563789;28;20596;-83
2022/05/17 05:02:19;;;;;;;9.38;7.10;;;;;;;15.72;100.00;98524.50;2568533;28;20057;-83
2022/05/17 05:03:35;;;;;;;10.18;7.18;;;;;;;15.72;100.00;98533.28;2575788;28;20120;-83
2022/05/17 05:04:50;;;;;;;11.45;6.90;;;;;;;15.79;100.00;98536.50;2575311;28;20061;-83
2022/05/17 05:06:06;;;;;;;16.73;7.30;;;;;;;15.77;100.00;98531.28;2575383;28;20119;-83
2022/05/17 05:07:22;;;;;;;10.63;7.20;;;;;;;15.73;100.00;98536.75;2575465;28;20057;-87
2022/05/17 05:08:37;;;;;;;11.48;7.38;;;;;;;15.77;100.00;98539.19;2575595;28;20057;-84
2022/05/17 05:09:52;;;;;;;10.13;6.70;;;;;;;15.89;100.00;98536.91;2575412;28;20133;-84
2022/05/17 05:11:08;;;;;;;11.98;6.78;;;;;;;15.82;100.00;98534.53;2575753;28;20051;-83
2022/05/17 05:12:24;;;;;;;7.93;6.20;;;;;;;15.80;100.00;98532.91;2575061;28;20049;-84
2022/05/17 05:13:40;;;;;;;9.88;6.80;;;;;;;15.85;100.00;98537.94;2575334;28;20089;-84
2022/05/17 05:14:55;;;;;;;9.45;6.43;;;;;;;15.89;100.00;98537.75;2575346;28;20675;-85
2022/05/17 05:16:13;;;;;;;7.10;6.38;;;;;;;15.88;100.00;98541.31;2575862;28;20452;-86
2022/05/17 05:17:33;;;;;;;7.88;6.80;;;;;;;15.85;100.00;98537.94;2564450;28;20091;-85
2022/05/17 05:18:50;;;;;;;9.27;6.70;;;;;;;15.87;100.00;98536.97;2569755;28;20549;-90
2022/05/17 05:20:09;;;;;;;9.90;6.80;;;;;;;15.87;100.00;98542.22;2575529;28;20086;-87
2022/05/17 05:21:25;;;;;;;11.68;7.38;;;;;;;15.88;100.00;98536.03;2575736;28;20352;-88
2022/05/17 05:22:41;;;;;;;9.93;6.97;;;;;;;15.89;100.00;98536.91;2575492;28;20054;-90
2022/05/17 05:23:57;;;;;;;11.82;7.30;;;;;;;15.91;100.00;98537.69;2576099;28;20767;-88
2022/05/17 05:25:14;;;;;;;9.68;6.95;;;;;;;15.83;100.00;98535.41;2576164;28;20050;-88
2022/05/17 05:26:32;;;;;;;10.65;6.95;;;;;;;15.87;100.00;98539.59;2571406;28;20497;-88
2022/05/17 05:27:48;;;;;;;9.88;6.97;;;;;;;15.91;100.00;98540.34;2573999;28;20062;-88
2022/05/17 05:29:04;;;;;;;11.43;7.07;;;;;;;15.90;100.00;98536.00;2576181;28;20054;-89
2022/05/17 05:30:21;;;;;;;10.15;7.13;;;;;;;15.98;100.00;98535.63;2575737;28;20376;-89
2022/05/17 05:31:37;;;;;;;10.95;6.88;;;;;;;16.02;100.00;98540.69;2575748;28;20492;-89
2022/05/17 05:32:53;;;;;;;11.38;7.88;;;;;;;16.00;100.00;98539.03;2575701;28;20054;-90
2022/05/17 05:34:08;;;;;;;9.65;6.63;;;;;;;16.01;100.00;98538.09;2575612;28;20889;-88
2022/05/17 05:35:27;;;;;;;11.45;7.45;;;;;;;16.05;100.00;98540.53;2575915;28;20394;-87
2022/05/17 05:36:44;;;;;;;11.32;8.07;;;;;;;16.03;100.00;98545.03;2575692;28;20290;-88
2022/05/17 05:38:02;;;;;;;10.93;7.20;;;;;;;16.04;100.00;98537.94;2575869;28;20054;-89
2022/05/17 05:39:18;;;;;;;13.43;7.25;;;;;;;16.07;100.00;98543.09;2575464;28;20730;-88
2022/05/17 05:40:33;;;;;;;11.90;7.90;;;;;;;16.08;100.00;98537.72;2575852;28;20177;-89
2022/05/17 05:41:49;;;;;;;11.95;7.85;;;;;;;16.06;100.00;98544.00;2575830;28;20054;-89
2022/05/17 05:43:05;;;;;;;11.45;7.57;;;;;;;16.08;100.00;98542.16;2575910;28;20115;-89
2022/05/17 05:44:21;;;;;;;12.52;7.80;;;;;;;16.12;100.00;98546.38;2575830;28;20509;-89
2022/05/17 05:45:36;;;;;;;10.02;7.60;;;;;;;16.12;100.00;98548.13;2575775;28;20082;-89
2022/05/17 05:46:52;;;;;;;10.43;7.78;;;;;;;16.10;100.00;98551.72;2575709;28;20059;-89
2022/05/17 05:48:08;;;;;;;14.25;7.68;;;;;;;16.09;100.00;98559.72;2564974;28;20047;-89
2022/05/17 05:49:23;;;;;;;9.38;7.47;;;;;;;16.03;100.00;98558.22;2569231;28;20050;-90
2022/05/17 05:50:39;;;;;;;12.30;8.23;;;;;;;16.08;100.00;98558.03;2575842;28;20042;-89
2022/05/17 05:51:55;;;;;;;11.02;7.80;;;;;;;16.07;100.00;98553.66;2575874;28;20061;-88
2022/05/17 05:53:12;;;;;;;10.50;8.05;;;;;;;16.09;100.00;98560.56;2575584;28;20050;-90
2022/05/17 05:54:27;;;;;;;11.50;8.23;;;;;;;16.07;100.00;98554.50;2575762;28;20440;-89
2022/05/17 05:55:43;;;;;;;13.50;8.50;;;;;;;16.13;100.00;98560.41;2575639;28;20046;-88
2022/05/17 05:57:02;;;;;;;10.05;7.93;;;;;;;16.17;100.00;98557.53;2575709;28;20166;-89
2022/05/17 05:58:18;;;;;;;12.95;8.63;;;;;;;16.17;100.00;98557.53;2575808;28;20057;-89